| time (UTC) | temp F | wind direction | speed MPH | gust MPH | rain 1hr in | rain 24hr in | rain mn in | humidity % | barometer mb |
| 20260510182201 | 89 | 294 | 4.0 | 7.0 | 0.00 | 0.01 | 0.01 | 55 | 1017.2 |
| 20260510181658 | 89 | 248 | 5.0 | 8.0 | 0.00 | 0.01 | 0.01 | 62 | 1017.3 |
| 20260510181155 | 89 | 142 | 4.0 | 4.0 | 0.00 | 0.01 | 0.01 | 55 | 1017.2 |
| 20260510180651 | 89 | 257 | 8.0 | 9.0 | 0.00 | 0.01 | 0.01 | 56 | 1017.3 |
| 20260510180149 | 89 | 190 | 6.0 | 7.0 | 0.00 | 0.01 | 0.01 | 56 | 1017.4 |
| 20260510175644 | 89 | 254 | 7.0 | 10.0 | 0.00 | 0.01 | 0.01 | 56 | 1017.3 |
| 20260510175140 | 89 | 236 | 3.0 | 4.0 | 0.00 | 0.01 | 0.01 | 54 | 1017.6 |
| 20260510174638 | 89 | 254 | 6.0 | 8.0 | 0.00 | 0.01 | 0.01 | 55 | 1017.4 |
| 20260510174136 | 89 | 232 | 4.0 | 6.0 | 0.00 | 0.01 | 0.01 | 58 | 1017.7 |
| 20260510173631 | 89 | 303 | 2.0 | 6.0 | 0.00 | 0.01 | 0.01 | 57 | 1017.7 |
| 20260510173127 | 88 | 309 | 6.0 | 9.0 | 0.00 | 0.01 | 0.01 | 57 | 1017.9 |
| 20260510172623 | 88 | 295 | 2.0 | 6.0 | 0.00 | 0.01 | 0.01 | 53 | 1017.9 |
| 20260510172119 | 88 | 260 | 6.0 | 13.0 | 0.00 | 0.01 | 0.01 | 60 | 1018.1 |
| 20260510171616 | 87 | 259 | 3.0 | 10.0 | 0.00 | 0.01 | 0.01 | 60 | 1018.2 |
| 20260510171114 | 87 | 189 | 7.0 | 11.0 | 0.00 | 0.01 | 0.01 | 62 | 1018.2 |
| 20260510170610 | 87 | 177 | 7.0 | 13.0 | 0.00 | 0.01 | 0.01 | 62 | 1018.2 |
| 20260510170107 | 86 | 189 | 7.0 | 10.0 | 0.00 | 0.01 | 0.01 | 62 | 1018.1 |
| 20260510165603 | 87 | 197 | 9.0 | 13.0 | 0.00 | 0.01 | 0.01 | 63 | 1018.2 |
| 20260510165058 | 87 | 256 | 5.0 | 10.0 | 0.00 | 0.01 | 0.01 | 65 | 1018.3 |
| 20260510164556 | 86 | 275 | 7.0 | 8.0 | 0.00 | 0.01 | 0.01 | 63 | 1018.5 |
| 20260510164052 | 86 | 221 | 5.0 | 10.0 | 0.00 | 0.01 | 0.01 | 66 | 1018.7 |
| 20260510163548 | 87 | 229 | 6.0 | 7.0 | 0.00 | 0.01 | 0.01 | 64 | 1018.9 |
| 20260510163044 | 86 | 241 | 0.0 | 1.0 | 0.00 | 0.01 | 0.01 | 64 | 1018.8 |
| 20260510162539 | 87 | 271 | 3.0 | 4.0 | 0.00 | 0.01 | 0.01 | 65 | 1018.8 |
| 20260510162036 | 86 | 248 | 1.0 | 2.0 | 0.00 | 0.01 | 0.01 | 65 | 1018.9 |
| 20260510161526 | 85 | 246 | 1.0 | 4.0 | 0.00 | 0.01 | 0.01 | 66 | 1018.9 |
| 20260510161023 | 86 | 247 | 6.0 | 7.0 | 0.00 | 0.01 | 0.01 | 67 | 1018.8 |
| 20260510160520 | 85 | 155 | 2.0 | 4.0 | 0.00 | 0.01 | 0.01 | 68 | 1018.9 |
| 20260510160019 | 85 | 149 | 2.0 | 3.0 | 0.00 | 0.01 | 0.01 | 70 | 1019.0 |
| 20260510155516 | 85 | 177 | 3.0 | 3.0 | 0.00 | 0.01 | 0.01 | 70 | 1018.9 |
| 20260510155013 | 85 | 160 | 6.0 | 7.0 | 0.00 | 0.01 | 0.01 | 71 | 1019.0 |
| 20260510154508 | 84 | 156 | 6.0 | 6.0 | 0.00 | 0.01 | 0.01 | 71 | 1019.0 |
| 20260510154008 | 85 | 209 | 4.0 | 6.0 | 0.00 | 0.01 | 0.01 | 72 | 1019.2 |
| 20260510153504 | 84 | 210 | 2.0 | 3.0 | 0.00 | 0.01 | 0.01 | 72 | 1019.1 |
| 20260510153001 | 84 | 218 | 3.0 | 4.0 | 0.00 | 0.01 | 0.01 | 72 | 1019.2 |
| 20260510152458 | 84 | 198 | 4.0 | 4.0 | 0.00 | 0.01 | 0.01 | 73 | 1019.1 |
| 20260510151954 | 84 | 244 | 2.0 | 2.0 | 0.00 | 0.01 | 0.01 | 72 | 1019.0 |
| 20260510151451 | 83 | 266 | 0.0 | 2.0 | 0.00 | 0.01 | 0.01 | 72 | 1018.8 |
| 20260510150948 | 83 | 281 | 3.0 | 3.0 | 0.00 | 0.01 | 0.01 | 74 | 1019.1 |
| 20260510150444 | 83 | 281 | 2.0 | 7.0 | 0.00 | 0.01 | 0.01 | 73 | 1019.0 |
| 20260510145939 | 83 | 233 | 3.0 | 7.0 | 0.00 | 0.01 | 0.01 | 73 | 1018.8 |
| 20260510145431 | 83 | 260 | 3.0 | 7.0 | 0.00 | 0.01 | 0.01 | 73 | 1018.8 |
| 20260510144927 | 83 | 194 | 6.0 | 8.0 | 0.00 | 0.01 | 0.01 | 72 | 1018.9 |
| 20260510144425 | 82 | 263 | 6.0 | 7.0 | 0.00 | 0.01 | 0.01 | 72 | 1018.8 |
| 20260510143924 | 82 | 226 | 6.0 | 9.0 | 0.00 | 0.01 | 0.01 | 74 | 1018.8 |
| 20260510143421 | 82 | 240 | 5.0 | 6.0 | 0.00 | 0.01 | 0.01 | 74 | 1018.7 |
| 20260510142918 | 82 | 250 | 6.0 | 7.0 | 0.00 | 0.01 | 0.01 | 75 | 1018.9 |
| 20260510142415 | 82 | 259 | 6.0 | 9.0 | 0.00 | 0.01 | 0.01 | 75 | 1018.8 |
| 20260510141911 | 82 | 218 | 4.0 | 4.0 | 0.00 | 0.01 | 0.01 | 77 | 1018.8 |
| 20260510141409 | 82 | 221 | 2.0 | 3.0 | 0.00 | 0.01 | 0.01 | 79 | 1019.0 |
| 20260510140906 | 82 | 266 | 2.0 | 3.0 | 0.00 | 0.01 | 0.01 | 80 | 1018.9 |
| 20260510140402 | 80 | 230 | 1.0 | 2.0 | 0.00 | 0.01 | 0.01 | 82 | 1018.8 |
| 20260510135900 | 80 | 236 | 2.0 | 3.0 | 0.00 | 0.01 | 0.01 | 83 | 1018.7 |
| 20260510135357 | 80 | 231 | 3.0 | 4.0 | 0.00 | 0.01 | 0.01 | 85 | 1018.5 |
| 20260510134855 | 79 | 223 | 4.0 | 4.0 | 0.00 | 0.01 | 0.01 | 86 | 1018.5 |
| 20260510134351 | 79 | 225 | 4.0 | 4.0 | 0.00 | 0.01 | 0.01 | 85 | 1018.5 |
| 20260510133847 | 79 | 217 | 2.0 | 6.0 | 0.00 | 0.01 | 0.01 | 85 | 1018.3 |
| 20260510133343 | 79 | 211 | 3.0 | 6.0 | 0.00 | 0.01 | 0.01 | 87 | 1018.5 |
| 20260510132839 | 78 | 218 | 4.0 | 4.0 | 0.00 | 0.01 | 0.01 | 88 | 1018.3 |
| 20260510132337 | 78 | 205 | 4.0 | 4.0 | 0.00 | 0.01 | 0.01 | 89 | 1018.0 |
| 20260510131834 | 78 | 240 | 2.0 | 6.0 | 0.00 | 0.01 | 0.01 | 90 | 1018.4 |
| 20260510131332 | 78 | 206 | 5.0 | 6.0 | 0.00 | 0.01 | 0.01 | 90 | 1018.4 |
| 20260510130828 | 77 | 228 | 3.0 | 4.0 | 0.00 | 0.01 | 0.01 | 90 | 1018.4 |
| 20260510130325 | 77 | 223 | 6.0 | 7.0 | 0.00 | 0.01 | 0.01 | 92 | 1018.5 |
| 20260510125821 | 77 | 241 | 4.0 | 4.0 | 0.00 | 0.01 | 0.01 | 93 | 1018.3 |
| 20260510125317 | 76 | 234 | 2.0 | 4.0 | 0.00 | 0.01 | 0.01 | 93 | 1018.2 |
| 20260510124815 | 76 | 236 | 1.0 | 4.0 | 0.00 | 0.01 | 0.01 | 94 | 1018.4 |
| 20260510124312 | 76 | 216 | 4.0 | 6.0 | 0.00 | 0.01 | 0.01 | 94 | 1018.3 |
| 20260510123807 | 76 | 209 | 4.0 | 4.0 | 0.00 | 0.01 | 0.01 | 95 | 1018.0 |
| 20260510123303 | 76 | 209 | 3.0 | 3.0 | 0.00 | 0.01 | 0.01 | 96 | 1018.0 |
| 20260510122759 | 75 | 223 | 2.0 | 3.0 | 0.00 | 0.01 | 0.01 | 96 | 1018.1 |
| 20260510122255 | 75 | 221 | 2.0 | 2.0 | 0.00 | 0.01 | 0.01 | 96 | 1018.1 |
| 20260510121752 | 75 | 251 | 1.0 | 2.0 | 0.00 | 0.01 | 0.01 | 97 | 1017.9 |
| 20260510121250 | 74 | 250 | 1.0 | 2.0 | 0.00 | 0.01 | 0.01 | 97 | 1018.0 |
| 20260510120747 | 74 | 279 | 1.0 | 1.0 | 0.00 | 0.01 | 0.01 | 97 | 1017.8 |
| 20260510120243 | 74 | 255 | 1.0 | 2.0 | 0.00 | 0.01 | 0.01 | 97 | 1017.7 |
| 20260510115739 | 74 | 255 | 0.0 | 1.0 | 0.00 | 0.01 | 0.01 | 97 | 1017.7 |
| 20260510115238 | 74 | 258 | 1.0 | 2.0 | 0.00 | 0.01 | 0.01 | 97 | 1017.5 |
| 20260510114732 | 74 | 338 | 0.0 | 1.0 | 0.00 | 0.01 | 0.01 | 98 | 1017.6 |
| 20260510114230 | 74 | 19 | 0.0 | 0.0 | 0.00 | 0.01 | 0.01 | 98 | 1017.6 |
| 20260510113725 | 74 | 19 | 0.0 | 1.0 | 0.00 | 0.01 | 0.01 | 98 | 1017.4 |
| 20260510113222 | 73 | 19 | 0.0 | 0.0 | 0.00 | 0.01 | 0.01 | 98 | 1017.1 |
| 20260510112718 | 73 | 19 | 0.0 | 1.0 | 0.00 | 0.01 | 0.01 | 97 | 1016.9 |
| 20260510112216 | 73 | 19 | 0.0 | 0.0 | 0.00 | 0.01 | 0.01 | 97 | 1017.1 |
| 20260510111711 | 73 | 19 | 0.0 | 0.0 | 0.00 | 0.01 | 0.01 | 97 | 1017.2 |
| 20260510111209 | 73 | 19 | 0.0 | 0.0 | 0.00 | 0.01 | 0.01 | 97 | 1016.9 |
| 20260510110708 | 73 | 19 | 0.0 | 0.0 | 0.00 | 0.01 | 0.01 | 97 | 1017.1 |
| 20260510110206 | 73 | 19 | 0.0 | 0.0 | 0.05 | 0.01 | 0.01 | 97 | 1017.0 |
| 20260510105701 | 73 | 19 | 0.0 | 1.0 | 0.05 | 0.01 | 0.01 | 97 | 1016.7 |
| 20260510105200 | 73 | 19 | 0.0 | 0.0 | 0.00 | 0.00 | 0.00 | 97 | 1016.8 |
| 20260510104657 | 73 | 19 | 1.0 | 1.0 | 0.00 | 0.00 | 0.00 | 97 | 1016.7 |
| 20260510104154 | 73 | 20 | 0.0 | 1.0 | 0.00 | 0.00 | 0.00 | 97 | 1016.4 |
| 20260510103651 | 73 | 357 | 1.0 | 2.0 | 0.00 | 0.00 | 0.00 | 97 | 1016.5 |
| 20260510103149 | 73 | 103 | 0.0 | 1.0 | 0.00 | 0.00 | 0.00 | 97 | 1016.5 |
| 20260510102648 | 74 | 105 | 0.0 | 1.0 | 0.00 | 0.00 | 0.00 | 97 | 1016.4 |
| 20260510102145 | 74 | 117 | 1.0 | 2.0 | 0.00 | 0.00 | 0.00 | 97 | 1016.4 |
| 20260510101642 | 74 | 156 | 1.0 | 2.0 | 0.00 | 0.00 | 0.00 | 97 | 1016.2 |
| 20260510101140 | 73 | 171 | 2.0 | 3.0 | 0.00 | 0.00 | 0.00 | 98 | 1016.3 |
| 20260510100636 | 73 | 108 | 1.0 | 1.0 | 0.00 | 0.00 | 0.00 | 97 | 1016.0 |
| 20260510100134 | 73 | 70 | 0.0 | 1.0 | 0.00 | 0.00 | 0.00 | 97 | 1016.1 |
| 20260510095629 | 73 | 69 | 0.0 | 0.0 | 0.00 | 0.00 | 0.00 | 97 | 1016.0 |
| 20260510095124 | 73 | 69 | 0.0 | 1.0 | 0.00 | 0.00 | 0.00 | 97 | 1015.9 |
| 20260510094623 | 73 | 69 | 0.0 | 0.0 | 0.00 | 0.00 | 0.00 | 97 | 1016.0 |
| 20260510094119 | 73 | 69 | 0.0 | 1.0 | 0.00 | 0.00 | 0.00 | 96 | 1015.9 |
| 20260510093615 | 74 | 74 | 1.0 | 1.0 | 0.00 | 0.00 | 0.00 | 97 | 1015.7 |
| 20260510093112 | 74 | 128 | 0.0 | 1.0 | 0.00 | 0.00 | 0.00 | 97 | 1015.8 |
| 20260510092609 | 74 | 196 | 2.0 | 2.0 | 0.00 | 0.00 | 0.00 | 97 | 1015.8 |
| 20260510092108 | 74 | 150 | 0.0 | 2.0 | 0.00 | 0.00 | 0.00 | 97 | 1015.8 |
| 20260510091606 | 74 | 128 | 0.0 | 1.0 | 0.00 | 0.00 | 0.00 | 97 | 1015.8 |
| 20260510091102 | 74 | 113 | 0.0 | 1.0 | 0.00 | 0.00 | 0.00 | 97 | 1015.7 |
| 20260510090559 | 74 | 112 | 0.0 | 0.0 | 0.00 | 0.00 | 0.00 | 97 | 1015.8 |
| 20260510090054 | 74 | 112 | 0.0 | 1.0 | 0.00 | 0.00 | 0.00 | 97 | 1015.6 |
| 20260510085549 | 74 | 131 | 1.0 | 3.0 | 0.00 | 0.00 | 0.00 | 97 | 1015.5 |
| 20260510085046 | 74 | 194 | 4.0 | 4.0 | 0.00 | 0.00 | 0.00 | 97 | 1015.5 |
| 20260510084542 | 74 | 183 | 4.0 | 6.0 | 0.00 | 0.00 | 0.00 | 97 | 1015.3 |
| 20260510084039 | 74 | 150 | 4.0 | 4.0 | 0.00 | 0.00 | 0.00 | 97 | 1015.5 |
| 20260510083536 | 74 | 123 | 3.0 | 4.0 | 0.00 | 0.00 | 0.00 | 97 | 1015.1 |
| 20260510083032 | 74 | 142 | 4.0 | 7.0 | 0.00 | 0.00 | 0.00 | 97 | 1015.4 |
| 20260510082529 | 74 | 145 | 4.0 | 6.0 | 0.00 | 0.00 | 0.00 | 97 | 1015.5 |
| 20260510082024 | 74 | 143 | 4.0 | 4.0 | 0.00 | 0.00 | 0.00 | 97 | 1015.5 |
| 20260510081519 | 74 | 125 | 4.0 | 4.0 | 0.00 | 0.00 | 0.00 | 97 | 1015.7 |
| 20260510081016 | 74 | 146 | 3.0 | 3.0 | 0.00 | 0.00 | 0.00 | 97 | 1015.7 |
| 20260510080514 | 74 | 141 | 3.0 | 3.0 | 0.00 | 0.00 | 0.00 | 97 | 1015.7 |
| 20260510080012 | 74 | 147 | 0.0 | 2.0 | 0.00 | 0.00 | 0.00 | 97 | 1015.5 |
| 20260510075509 | 74 | 184 | 4.0 | 4.0 | 0.00 | 0.00 | 0.00 | 97 | 1015.7 |
| 20260510075006 | 73 | 179 | 2.0 | 3.0 | 0.00 | 0.00 | 0.00 | 97 | 1015.6 |
| 20260510074504 | 73 | 143 | 1.0 | 2.0 | 0.00 | 0.00 | 0.00 | 97 | 1015.8 |
| 20260510073959 | 73 | 111 | 2.0 | 2.0 | 0.00 | 0.00 | 0.00 | 97 | 1015.7 |
| 20260510073454 | 73 | 140 | 1.0 | 2.0 | 0.00 | 0.00 | 0.00 | 97 | 1015.6 |
| 20260510072951 | 73 | 140 | 1.0 | 2.0 | 0.00 | 0.00 | 0.00 | 96 | 1015.9 |
| 20260510072448 | 73 | 131 | 2.0 | 2.0 | 0.00 | 0.00 | 0.00 | 96 | 1015.8 |
| 20260510071944 | 74 | 161 | 3.0 | 3.0 | 0.00 | 0.00 | 0.00 | 96 | 1015.7 |
| 20260510071440 | 73 | 146 | 0.0 | 1.0 | 0.00 | 0.00 | 0.00 | 96 | 1015.9 |
| 20260510070938 | 73 | 133 | 1.0 | 2.0 | 0.00 | 0.00 | 0.00 | 96 | 1015.9 |
| 20260510070436 | 73 | 134 | 2.0 | 2.0 | 0.00 | 0.00 | 0.00 | 96 | 1015.8 |
| 20260510065931 | 73 | 193 | 2.0 | 2.0 | 0.00 | 0.00 | 0.00 | 97 | 1015.8 |
| 20260510065428 | 73 | 133 | 0.0 | 0.0 | 0.00 | 0.00 | 0.00 | 96 | 1015.7 |
| 20260510064924 | 73 | 123 | 1.0 | 2.0 | 0.00 | 0.00 | 0.00 | 96 | 1016.0 |
| 20260510064422 | 74 | 123 | 1.0 | 2.0 | 0.00 | 0.00 | 0.00 | 96 | 1016.1 |
| 20260510063918 | 73 | 222 | 2.0 | 3.0 | 0.00 | 0.00 | 0.00 | 97 | 1016.4 |
| 20260510063414 | 73 | 141 | 0.0 | 0.0 | 0.00 | 0.00 | 0.00 | 96 | 1016.3 |
| 20260510062913 | 73 | 141 | 0.0 | 1.0 | 0.00 | 0.00 | 0.00 | 96 | 1016.2 |
| 20260510062408 | 73 | 141 | 0.0 | 0.0 | 0.00 | 0.00 | 0.00 | 96 | 1016.3 |
| 20260510061903 | 73 | 141 | 0.0 | 1.0 | 0.00 | 0.00 | 0.00 | 96 | 1016.4 |
| 20260510061400 | 73 | 141 | 0.0 | 0.0 | 0.00 | 0.00 | 0.00 | 96 | 1016.3 |
| 20260510060855 | 73 | 141 | 0.0 | 0.0 | 0.00 | 0.00 | 0.00 | 96 | 1016.5 |
| 20260510060353 | 73 | 141 | 0.0 | 0.0 | 0.00 | 0.00 | 0.00 | 96 | 1016.7 |
| 20260510055849 | 73 | 141 | 0.0 | 0.0 | 0.00 | 0.00 | 0.00 | 96 | 1016.6 |
| 20260510055349 | 73 | 141 | 0.0 | 0.0 | 0.00 | 0.00 | 0.00 | 96 | 1016.9 |
| 20260510054848 | 73 | 141 | 0.0 | 1.0 | 0.00 | 0.00 | 0.00 | 96 | 1016.7 |
| 20260510054344 | 73 | 141 | 0.0 | 1.0 | 0.00 | 0.00 | 0.00 | 96 | 1016.7 |
| 20260510053839 | 73 | 142 | 0.0 | 1.0 | 0.00 | 0.00 | 0.00 | 96 | 1016.8 |
| 20260510053334 | 73 | 141 | 0.0 | 0.0 | 0.00 | 0.00 | 0.00 | 96 | 1017.0 |
| 20260510052831 | 73 | 141 | 0.0 | 0.0 | 0.00 | 0.00 | 0.00 | 96 | 1016.9 |
| 20260510052327 | 73 | 141 | 1.0 | 2.0 | 0.00 | 0.00 | 0.00 | 96 | 1016.9 |
| 20260510051823 | 73 | 144 | 0.0 | 0.0 | 0.00 | 0.00 | 0.00 | 96 | 1017.1 |
| 20260510051320 | 74 | 176 | 0.0 | 0.0 | 0.00 | 0.00 | 0.00 | 97 | 1017.1 |
| 20260510050817 | 74 | 176 | 0.0 | 2.0 | 0.00 | 0.00 | 0.00 | 97 | 1017.0 |
| 20260510050314 | 73 | 118 | 0.0 | 0.0 | 0.00 | 0.00 | 0.00 | 97 | 1017.1 |
| 20260510045811 | 73 | 111 | 0.0 | 0.0 | 0.00 | 0.00 | 0.00 | 97 | 1017.3 |
| 20260510045307 | 73 | 97 | 0.0 | 1.0 | 0.00 | 0.00 | 0.00 | 97 | 1016.9 |
| 20260510044805 | 73 | 96 | 0.0 | 1.0 | 0.00 | 0.00 | 0.00 | 97 | 1017.0 |
| 20260510044302 | 73 | 96 | 0.0 | 0.0 | 0.00 | 0.00 | 0.00 | 97 | 1017.3 |
| 20260510043758 | 73 | 96 | 1.0 | 2.0 | 0.00 | 0.00 | 0.00 | 97 | 1017.4 |
| 20260510043249 | 73 | 95 | 0.0 | 1.0 | 0.00 | 0.00 | 0.00 | 97 | 1017.1 |
| 20260510042746 | 73 | 95 | 0.0 | 0.0 | 0.00 | 0.00 | 0.00 | 97 | 1017.5 |
| 20260510042241 | 73 | 94 | 0.0 | 0.0 | 0.00 | 0.00 | 0.00 | 97 | 1017.5 |
| 20260510041738 | 73 | 95 | 0.0 | 0.0 | 0.00 | 0.00 | 0.00 | 97 | 1017.1 |
| 20260510041236 | 73 | 94 | 1.0 | 1.0 | 0.00 | 0.00 | 0.00 | 97 | 1017.4 |
| 20260510040733 | 73 | 95 | 0.0 | 0.0 | 0.00 | 0.00 | 0.00 | 97 | 1017.2 |
| 20260510040229 | 73 | 94 | 0.0 | 1.0 | 0.00 | 0.00 | 0.00 | 97 | 1017.4 |
| 20260510035724 | 73 | 95 | 0.0 | 1.0 | 0.00 | 0.11 | 0.11 | 97 | 1017.5 |
| 20260510035221 | 73 | 95 | 0.0 | 1.0 | 0.00 | 0.11 | 0.11 | 97 | 1017.4 |
| 20260510034716 | 73 | 95 | 0.0 | 1.0 | 0.00 | 0.11 | 0.11 | 97 | 1017.4 |
| 20260510034215 | 73 | 102 | 0.0 | 0.0 | 0.00 | 0.11 | 0.11 | 97 | 1017.4 |
| 20260510033710 | 73 | 102 | 0.0 | 0.0 | 0.00 | 0.11 | 0.11 | 97 | 1017.2 |
| 20260510033209 | 73 | 102 | 0.0 | 0.0 | 0.00 | 0.11 | 0.11 | 97 | 1017.2 |
| 20260510032705 | 73 | 102 | 0.0 | 0.0 | 0.00 | 0.11 | 0.11 | 97 | 1017.2 |
| 20260510032200 | 73 | 102 | 0.0 | 0.0 | 0.00 | 0.11 | 0.11 | 96 | 1017.1 |
| 20260510031654 | 73 | 102 | 0.0 | 0.0 | 0.00 | 0.11 | 0.11 | 97 | 1017.4 |
| 20260510031152 | 73 | 102 | 0.0 | 1.0 | 0.00 | 0.11 | 0.11 | 96 | 1017.3 |
| 20260510030646 | 74 | 103 | 0.0 | 0.0 | 0.00 | 0.11 | 0.11 | 96 | 1017.4 |
| 20260510030144 | 74 | 103 | 0.0 | 0.0 | 0.00 | 0.11 | 0.11 | 96 | 1017.3 |
| 20260510025641 | 74 | 103 | 0.0 | 1.0 | 0.00 | 0.11 | 0.11 | 96 | 1017.2 |
| 20260510025138 | 74 | 134 | 1.0 | 2.0 | 0.00 | 0.11 | 0.11 | 96 | 1017.3 |
| 20260510024636 | 74 | 149 | 2.0 | 2.0 | 0.00 | 0.11 | 0.11 | 96 | 1017.3 |
| 20260510024132 | 74 | 134 | 0.0 | 0.0 | 0.00 | 0.11 | 0.11 | 96 | 1017.0 |
| 20260510023628 | 74 | 134 | 0.0 | 0.0 | 0.00 | 0.11 | 0.11 | 96 | 1016.9 |
| 20260510023126 | 74 | 145 | 0.0 | 0.0 | 0.00 | 0.11 | 0.11 | 96 | 1017.2 |
| 20260510022625 | 74 | 134 | 0.0 | 0.0 | 0.00 | 0.11 | 0.11 | 96 | 1017.0 |
| 20260510022121 | 74 | 139 | 0.0 | 0.0 | 0.00 | 0.11 | 0.11 | 96 | 1017.0 |
| 20260510021616 | 74 | 139 | 0.0 | 0.0 | 0.00 | 0.11 | 0.11 | 96 | 1016.9 |
| 20260510021114 | 74 | 134 | 0.0 | 0.0 | 0.00 | 0.11 | 0.11 | 96 | 1017.2 |
| 20260510020608 | 74 | 97 | 0.0 | 0.0 | 0.00 | 0.11 | 0.11 | 96 | 1017.1 |
| 20260510020104 | 74 | 347 | 0.0 | 0.0 | 0.00 | 0.11 | 0.11 | 96 | 1016.9 |
| 20260510015600 | 74 | 347 | 0.0 | 0.0 | 0.00 | 0.11 | 0.11 | 96 | 1016.9 |
| 20260510015056 | 74 | 347 | 0.0 | 0.0 | 0.00 | 0.11 | 0.11 | 96 | 1016.6 |
| 20260510014552 | 74 | 347 | 0.0 | 0.0 | 0.00 | 0.11 | 0.11 | 96 | 1016.7 |
| 20260510014050 | 74 | 346 | 0.0 | 0.0 | 0.00 | 0.11 | 0.11 | 95 | 1016.7 |
| 20260510013544 | 74 | 346 | 0.0 | 0.0 | 0.00 | 0.11 | 0.11 | 95 | 1016.6 |
| 20260510013040 | 74 | 347 | 0.0 | 0.0 | 0.00 | 0.11 | 0.11 | 95 | 1016.4 |
| 20260510012534 | 74 | 347 | 0.0 | 0.0 | 0.00 | 0.11 | 0.11 | 95 | 1016.6 |
| 20260510012031 | 74 | 346 | 0.0 | 0.0 | 0.00 | 0.11 | 0.11 | 95 | 1016.5 |
| 20260510011530 | 74 | 346 | 0.0 | 0.0 | 0.00 | 0.11 | 0.11 | 95 | 1016.5 |
| 20260510011026 | 74 | 346 | 0.0 | 0.0 | 0.00 | 0.11 | 0.11 | 95 | 1016.5 |
| 20260510010523 | 74 | 346 | 0.0 | 0.0 | 0.00 | 0.11 | 0.11 | 95 | 1016.3 |
| 20260510010020 | 74 | 347 | 0.0 | 0.0 | 0.00 | 0.11 | 0.11 | 95 | 1016.4 |
| 20260510005516 | 74 | 346 | 0.0 | 0.0 | 0.00 | 0.11 | 0.11 | 95 | 1016.4 |
| 20260510005014 | 74 | 347 | 0.0 | 0.0 | 0.00 | 0.11 | 0.11 | 94 | 1016.4 |
| 20260510004511 | 74 | 347 | 0.0 | 0.0 | 0.00 | 0.11 | 0.11 | 94 | 1016.2 |
| 20260510004009 | 74 | 347 | 0.0 | 0.0 | 0.00 | 0.11 | 0.11 | 94 | 1016.2 |
| 20260510003505 | 74 | 346 | 0.0 | 0.0 | 0.00 | 0.11 | 0.11 | 94 | 1016.2 |
| 20260510003001 | 74 | 347 | 0.0 | 0.0 | 0.00 | 0.11 | 0.11 | 94 | 1016.0 |
| 20260510002457 | 74 | 346 | 0.0 | 0.0 | 0.00 | 0.11 | 0.11 | 94 | 1016.2 |
| 20260510001953 | 75 | 346 | 0.0 | 0.0 | 0.00 | 0.11 | 0.11 | 94 | 1016.1 |
| 20260510001451 | 75 | 346 | 0.0 | 0.0 | 0.00 | 0.11 | 0.11 | 94 | 1015.8 |
| 20260510000949 | 75 | 346 | 0.0 | 0.0 | 0.00 | 0.11 | 0.11 | 93 | 1015.8 |
| 20260510000444 | 75 | 346 | 0.0 | 0.0 | 0.00 | 0.11 | 0.11 | 93 | 1015.6 |
| 20260509235941 | 75 | 346 | 0.0 | 0.0 | 0.00 | 0.11 | 0.11 | 92 | 1015.4 |
| 20260509235438 | 75 | 346 | 0.0 | 1.0 | 0.00 | 0.11 | 0.11 | 92 | 1015.7 |
| 20260509234934 | 75 | 346 | 0.0 | 0.0 | 0.00 | 0.11 | 0.11 | 93 | 1015.3 |
| 20260509234431 | 75 | 346 | 0.0 | 0.0 | 0.00 | 0.11 | 0.11 | 93 | 1015.6 |
| 20260509233929 | 75 | 346 | 0.0 | 0.0 | 0.00 | 0.11 | 0.11 | 92 | 1015.5 |
| 20260509233426 | 75 | 346 | 0.0 | 0.0 | 0.00 | 0.11 | 0.11 | 92 | 1015.4 |
| 20260509232922 | 75 | 346 | 0.0 | 0.0 | 0.00 | 0.11 | 0.11 | 92 | 1015.2 |
| 20260509232420 | 76 | 347 | 0.0 | 1.0 | 0.00 | 0.11 | 0.11 | 91 | 1015.3 |
| 20260509231915 | 76 | 308 | 1.0 | 2.0 | 0.00 | 0.11 | 0.11 | 92 | 1015.4 |
| 20260509231412 | 76 | 336 | 0.0 | 1.0 | 0.00 | 0.11 | 0.11 | 91 | 1015.2 |
| 20260509230911 | 76 | 36 | 0.0 | 0.0 | 0.00 | 0.11 | 0.11 | 92 | 1015.2 |
| 20260509230407 | 76 | 36 | 0.0 | 0.0 | 0.00 | 0.11 | 0.11 | 91 | 1015.3 |
| 20260509225903 | 76 | 112 | 0.0 | 1.0 | 0.00 | 0.11 | 0.11 | 92 | 1015.2 |
| 20260509225400 | 76 | 105 | 0.0 | 1.0 | 0.00 | 0.11 | 0.11 | 91 | 1014.9 |
| 20260509224855 | 76 | 333 | 1.0 | 3.0 | 0.00 | 0.11 | 0.11 | 90 | 1015.0 |
| 20260509224351 | 76 | 301 | 1.0 | 2.0 | 0.00 | 0.11 | 0.11 | 90 | 1015.1 |
| 20260509223849 | 76 | 42 | 0.0 | 2.0 | 0.00 | 0.11 | 0.11 | 91 | 1015.1 |
| 20260509223345 | 76 | 338 | 2.0 | 3.0 | 0.00 | 0.11 | 0.11 | 90 | 1015.0 |
| 20260509222843 | 76 | 92 | 0.0 | 1.0 | 0.00 | 0.11 | 0.11 | 90 | 1015.1 |
| 20260509222342 | 76 | 304 | 0.0 | 2.0 | 0.00 | 0.11 | 0.11 | 90 | 1015.1 |
| 20260509221838 | 76 | 285 | 2.0 | 2.0 | 0.00 | 0.11 | 0.11 | 91 | 1014.9 |
| 20260509221337 | 76 | 318 | 0.0 | 1.0 | 0.00 | 0.11 | 0.11 | 92 | 1015.0 |
| 20260509220836 | 76 | 324 | 1.0 | 3.0 | 0.00 | 0.11 | 0.11 | 91 | 1014.9 |
| 20260509220333 | 76 | 32 | 2.0 | 2.0 | 0.07 | 0.11 | 0.11 | 91 | 1014.9 |
| 20260509215828 | 76 | 118 | 0.0 | 1.0 | 0.07 | 0.11 | 0.11 | 90 | 1015.2 |
| 20260509215325 | 77 | 10 | 0.0 | 1.0 | 0.00 | 0.10 | 0.10 | 89 | 1015.3 |
| 20260509214822 | 77 | 36 | 1.0 | 1.0 | 0.00 | 0.10 | 0.10 | 89 | 1015.1 |
| 20260509214319 | 77 | 294 | 1.0 | 2.0 | 0.00 | 0.10 | 0.10 | 88 | 1015.0 |
| 20260509213817 | 78 | 22 | 2.0 | 3.0 | 0.00 | 0.10 | 0.10 | 86 | 1015.1 |
| 20260509213312 | 79 | 144 | 0.0 | 1.0 | 0.00 | 0.10 | 0.10 | 87 | 1015.0 |
| 20260509212810 | 79 | 319 | 0.0 | 2.0 | 0.00 | 0.10 | 0.10 | 86 | 1014.6 |
| 20260509212307 | 79 | 296 | 1.0 | 2.0 | 0.00 | 0.10 | 0.10 | 86 | 1014.3 |
| 20260509211802 | 78 | 15 | 1.0 | 1.0 | 0.00 | 0.10 | 0.10 | 87 | 1014.5 |
| 20260509211259 | 78 | 342 | 0.0 | 2.0 | 0.07 | 0.10 | 0.10 | 88 | 1014.7 |
| 20260509210755 | 78 | 305 | 1.0 | 2.0 | 0.24 | 0.10 | 0.10 | 87 | 1014.5 |
| 20260509210253 | 78 | 175 | 0.0 | 1.0 | 0.40 | 0.09 | 0.09 | 86 | 1014.5 |
| 20260509205753 | 79 | 113 | 0.0 | 1.0 | 0.28 | 0.05 | 0.05 | 82 | 1014.6 |
| 20260509205247 | 80 | 321 | 1.0 | 4.0 | 0.12 | 0.02 | 0.02 | 77 | 1014.6 |
| 20260509204743 | 81 | 341 | 4.0 | 7.0 | 0.00 | 0.00 | 0.00 | 72 | 1014.4 |
| 20260509204240 | 82 | 335 | 2.0 | 4.0 | 0.00 | 0.00 | 0.00 | 70 | 1014.2 |
| 20260509203736 | 82 | 311 | 4.0 | 6.0 | 0.00 | 0.00 | 0.00 | 71 | 1014.4 |
| 20260509203234 | 83 | 8 | 3.0 | 6.0 | 0.00 | 0.00 | 0.00 | 71 | 1014.1 |
| 20260509202730 | 83 | 301 | 5.0 | 6.0 | 0.00 | 0.00 | 0.00 | 69 | 1014.1 |
| 20260509202226 | 83 | 15 | 0.0 | 7.0 | 0.00 | 0.00 | 0.00 | 69 | 1014.1 |
| 20260509201720 | 84 | 36 | 4.0 | 9.0 | 0.00 | 0.00 | 0.00 | 67 | 1014.3 |
| 20260509201218 | 84 | 336 | 5.0 | 7.0 | 0.00 | 0.00 | 0.00 | 67 | 1014.1 |
| 20260509200714 | 84 | 306 | 3.0 | 7.0 | 0.00 | 0.00 | 0.00 | 67 | 1013.9 |
| 20260509200209 | 86 | 332 | 5.0 | 11.0 | 0.00 | 0.00 | 0.00 | 64 | 1013.7 |
| 20260509195706 | 89 | 263 | 8.0 | 18.0 | 0.00 | 0.00 | 0.00 | 58 | 1013.7 |
| 20260509195201 | 89 | 244 | 4.0 | 6.0 | 0.00 | 0.00 | 0.00 | 55 | 1013.5 |
| 20260509194700 | 89 | 283 | 4.0 | 10.0 | 0.00 | 0.00 | 0.00 | 55 | 1013.8 |
| 20260509194157 | 89 | 275 | 2.0 | 3.0 | 0.00 | 0.00 | 0.00 | 52 | 1013.6 |
| 20260509193654 | 89 | 255 | 7.0 | 9.0 | 0.00 | 0.00 | 0.00 | 53 | 1013.7 |
| 20260509193149 | 89 | 200 | 5.0 | 7.0 | 0.00 | 0.00 | 0.00 | 53 | 1013.4 |
| 20260509192646 | 89 | 260 | 6.0 | 7.0 | 0.00 | 0.00 | 0.00 | 55 | 1013.6 |
| 20260509192141 | 89 | 203 | 5.0 | 10.0 | 0.00 | 0.00 | 0.00 | 53 | 1013.6 |
| 20260509191641 | 89 | 244 | 6.0 | 9.0 | 0.00 | 0.00 | 0.00 | 54 | 1014.0 |
| 20260509191139 | 89 | 292 | 6.0 | 10.0 | 0.00 | 0.00 | 0.00 | 55 | 1013.7 |
| 20260509190635 | 89 | 209 | 7.0 | 8.0 | 0.00 | 0.00 | 0.00 | 52 | 1013.6 |
| 20260509190132 | 89 | 225 | 4.0 | 6.0 | 0.00 | 0.00 | 0.00 | 52 | 1014.0 |
| 20260509185630 | 89 | 254 | 5.0 | 9.0 | 0.00 | 0.00 | 0.00 | 55 | 1014.0 |
| 20260509185125 | 89 | 261 | 5.0 | 10.0 | 0.00 | 0.00 | 0.00 | 53 | 1014.0 |
| 20260509184623 | 88 | 246 | 5.0 | 8.0 | 0.00 | 0.00 | 0.00 | 53 | 1014.1 |
| 20260509184120 | 89 | 288 | 7.0 | 10.0 | 0.00 | 0.00 | 0.00 | 53 | 1014.2 |
| 20260509183616 | 89 | 270 | 7.0 | 13.0 | 0.00 | 0.00 | 0.00 | 54 | 1013.9 |
| 20260509183111 | 89 | 194 | 5.0 | 9.0 | 0.00 | 0.00 | 0.00 | 54 | 1014.2 |
| 20260509182608 | 88 | 280 | 5.0 | 8.0 | 0.00 | 0.00 | 0.00 | 53 | 1014.4 |